sensor_id;sensor_type;location;lat;lon;timestamp;P1;durP1;ratioP1;P2;durP2;ratioP2
74656;SDS011;63185;45.642;13.764;2022-10-16T00:00:34;64.15;;;41.28;;
74656;SDS011;63185;45.642;13.764;2022-10-16T00:03:01;64.43;;;40.10;;
74656;SDS011;63185;45.642;13.764;2022-10-16T00:05:27;61.08;;;40.67;;
74656;SDS011;63185;45.642;13.764;2022-10-16T00:07:53;62.47;;;41.15;;
74656;SDS011;63185;45.642;13.764;2022-10-16T00:10:19;60.20;;;41.13;;
74656;SDS011;63185;45.642;13.764;2022-10-16T00:12:45;63.80;;;40.30;;
74656;SDS011;63185;45.642;13.764;2022-10-16T00:15:11;63.75;;;40.38;;
74656;SDS011;63185;45.642;13.764;2022-10-16T00:17:37;58.20;;;39.65;;
74656;SDS011;63185;45.642;13.764;2022-10-16T00:20:02;57.20;;;38.20;;
74656;SDS011;63185;45.642;13.764;2022-10-16T00:22:28;61.05;;;39.53;;
74656;SDS011;63185;45.642;13.764;2022-10-16T00:24:54;60.35;;;38.90;;
74656;SDS011;63185;45.642;13.764;2022-10-16T00:27:20;55.97;;;38.45;;
74656;SDS011;63185;45.642;13.764;2022-10-16T00:29:49;58.17;;;36.90;;
74656;SDS011;63185;45.642;13.764;2022-10-16T00:32:18;54.10;;;37.00;;
74656;SDS011;63185;45.642;13.764;2022-10-16T00:34:44;52.47;;;35.35;;
74656;SDS011;63185;45.642;13.764;2022-10-16T00:37:11;51.90;;;34.60;;
74656;SDS011;63185;45.642;13.764;2022-10-16T00:39:37;53.78;;;35.58;;
74656;SDS011;63185;45.642;13.764;2022-10-16T00:42:02;51.22;;;34.97;;
74656;SDS011;63185;45.642;13.764;2022-10-16T00:47:12;52.85;;;35.13;;
74656;SDS011;63185;45.642;13.764;2022-10-16T00:49:50;55.40;;;34.88;;
74656;SDS011;63185;45.642;13.764;2022-10-16T00:52:18;55.17;;;34.85;;
74656;SDS011;63185;45.642;13.764;2022-10-16T00:54:44;56.45;;;34.75;;
74656;SDS011;63185;45.642;13.764;2022-10-16T00:57:12;52.63;;;34.22;;
74656;SDS011;63185;45.642;13.764;2022-10-16T00:59:39;52.03;;;34.97;;
74656;SDS011;63185;45.642;13.764;2022-10-16T01:02:06;53.10;;;35.60;;
74656;SDS011;63185;45.642;13.764;2022-10-16T01:04:38;49.53;;;34.70;;
74656;SDS011;63185;45.642;13.764;2022-10-16T01:12:51;53.25;;;35.28;;
74656;SDS011;63185;45.642;13.764;2022-10-16T01:18:26;49.70;;;34.67;;
74656;SDS011;63185;45.642;13.764;2022-10-16T01:21:13;53.78;;;35.72;;
74656;SDS011;63185;45.642;13.764;2022-10-16T01:23:49;55.25;;;36.28;;
74656;SDS011;63185;45.642;13.764;2022-10-16T01:28:53;56.90;;;37.63;;
74656;SDS011;63185;45.642;13.764;2022-10-16T01:31:29;54.75;;;36.92;;
74656;SDS011;63185;45.642;13.764;2022-10-16T01:34:08;51.78;;;36.10;;
74656;SDS011;63185;45.642;13.764;2022-10-16T01:36:52;55.53;;;36.83;;
74656;SDS011;63185;45.642;13.764;2022-10-16T01:39:22;53.65;;;36.58;;
74656;SDS011;63185;45.642;13.764;2022-10-16T01:42:03;54.60;;;36.95;;
74656;SDS011;63185;45.642;13.764;2022-10-16T01:44:36;55.53;;;36.75;;
74656;SDS011;63185;45.642;13.764;2022-10-16T01:47:04;53.85;;;36.05;;
74656;SDS011;63185;45.642;13.764;2022-10-16T01:49:33;52.43;;;35.40;;
74656;SDS011;63185;45.642;13.764;2022-10-16T01:52:02;54.13;;;36.80;;
74656;SDS011;63185;45.642;13.764;2022-10-16T01:54:32;59.13;;;38.05;;
74656;SDS011;63185;45.642;13.764;2022-10-16T01:57:00;55.60;;;37.30;;
74656;SDS011;63185;45.642;13.764;2022-10-16T01:59:29;55.75;;;37.60;;
74656;SDS011;63185;45.642;13.764;2022-10-16T02:02:01;57.45;;;36.85;;
74656;SDS011;63185;45.642;13.764;2022-10-16T02:04:34;58.55;;;39.58;;
74656;SDS011;63185;45.642;13.764;2022-10-16T02:07:07;60.42;;;38.28;;
74656;SDS011;63185;45.642;13.764;2022-10-16T02:09:34;56.03;;;37.55;;
74656;SDS011;63185;45.642;13.764;2022-10-16T02:12:01;59.55;;;38.03;;
74656;SDS011;63185;45.642;13.764;2022-10-16T02:14:33;56.45;;;39.10;;
74656;SDS011;63185;45.642;13.764;2022-10-16T02:17:09;58.72;;;39.00;;
74656;SDS011;63185;45.642;13.764;2022-10-16T02:19:40;55.47;;;37.55;;
74656;SDS011;63185;45.642;13.764;2022-10-16T02:22:07;58.08;;;38.53;;
74656;SDS011;63185;45.642;13.764;2022-10-16T02:30:07;59.97;;;38.65;;
74656;SDS011;63185;45.642;13.764;2022-10-16T02:32:51;58.45;;;39.30;;
74656;SDS011;63185;45.642;13.764;2022-10-16T02:35:18;58.40;;;39.85;;
74656;SDS011;63185;45.642;13.764;2022-10-16T02:37:47;60.45;;;39.95;;
74656;SDS011;63185;45.642;13.764;2022-10-16T02:40:15;59.97;;;40.50;;
74656;SDS011;63185;45.642;13.764;2022-10-16T02:42:42;63.95;;;40.60;;
74656;SDS011;63185;45.642;13.764;2022-10-16T02:45:08;59.90;;;40.53;;
74656;SDS011;63185;45.642;13.764;2022-10-16T02:47:36;58.25;;;40.22;;
74656;SDS011;63185;45.642;13.764;2022-10-16T02:50:02;62.55;;;42.53;;
74656;SDS011;63185;45.642;13.764;2022-10-16T02:52:28;63.63;;;42.22;;
74656;SDS011;63185;45.642;13.764;2022-10-16T02:54:54;63.95;;;41.33;;
74656;SDS011;63185;45.642;13.764;2022-10-16T02:57:19;64.00;;;41.20;;
74656;SDS011;63185;45.642;13.764;2022-10-16T02:59:45;62.10;;;42.35;;
74656;SDS011;63185;45.642;13.764;2022-10-16T03:02:11;64.15;;;42.17;;
74656;SDS011;63185;45.642;13.764;2022-10-16T03:04:37;63.97;;;42.28;;
74656;SDS011;63185;45.642;13.764;2022-10-16T03:07:03;66.30;;;42.65;;
74656;SDS011;63185;45.642;13.764;2022-10-16T03:09:28;67.93;;;44.10;;
74656;SDS011;63185;45.642;13.764;2022-10-16T03:11:54;66.57;;;43.35;;
74656;SDS011;63185;45.642;13.764;2022-10-16T03:14:20;67.72;;;43.85;;
74656;SDS011;63185;45.642;13.764;2022-10-16T03:16:45;69.20;;;43.88;;
74656;SDS011;63185;45.642;13.764;2022-10-16T03:19:11;68.18;;;44.15;;
74656;SDS011;63185;45.642;13.764;2022-10-16T03:21:38;70.35;;;43.30;;
74656;SDS011;63185;45.642;13.764;2022-10-16T03:24:04;68.20;;;44.90;;
74656;SDS011;63185;45.642;13.764;2022-10-16T03:26:30;70.35;;;46.35;;
74656;SDS011;63185;45.642;13.764;2022-10-16T03:28:56;68.13;;;44.92;;
74656;SDS011;63185;45.642;13.764;2022-10-16T03:31:21;70.80;;;45.75;;
74656;SDS011;63185;45.642;13.764;2022-10-16T03:33:47;68.85;;;46.72;;
74656;SDS011;63185;45.642;13.764;2022-10-16T03:36:13;72.78;;;46.60;;
74656;SDS011;63185;45.642;13.764;2022-10-16T03:38:38;68.05;;;44.42;;
74656;SDS011;63185;45.642;13.764;2022-10-16T03:41:04;65.90;;;44.90;;
74656;SDS011;63185;45.642;13.764;2022-10-16T03:43:30;71.97;;;45.92;;
74656;SDS011;63185;45.642;13.764;2022-10-16T03:45:55;70.55;;;45.42;;
74656;SDS011;63185;45.642;13.764;2022-10-16T03:48:21;73.78;;;45.22;;
74656;SDS011;63185;45.642;13.764;2022-10-16T03:50:47;71.05;;;44.25;;
74656;SDS011;63185;45.642;13.764;2022-10-16T03:53:13;70.65;;;45.78;;
74656;SDS011;63185;45.642;13.764;2022-10-16T03:55:41;67.00;;;44.05;;
74656;SDS011;63185;45.642;13.764;2022-10-16T03:58:07;69.97;;;46.65;;
74656;SDS011;63185;45.642;13.764;2022-10-16T04:00:32;69.57;;;44.55;;
74656;SDS011;63185;45.642;13.764;2022-10-16T04:02:59;66.85;;;44.60;;
74656;SDS011;63185;45.642;13.764;2022-10-16T04:05:25;64.22;;;44.22;;
74656;SDS011;63185;45.642;13.764;2022-10-16T04:07:50;63.83;;;43.40;;
74656;SDS011;63185;45.642;13.764;2022-10-16T04:10:16;66.30;;;42.55;;
74656;SDS011;63185;45.642;13.764;2022-10-16T04:12:42;65.35;;;42.38;;
74656;SDS011;63185;45.642;13.764;2022-10-16T04:15:08;64.57;;;42.17;;
74656;SDS011;63185;45.642;13.764;2022-10-16T04:17:34;66.85;;;43.25;;
74656;SDS011;63185;45.642;13.764;2022-10-16T04:20:00;65.93;;;43.88;;
74656;SDS011;63185;45.642;13.764;2022-10-16T04:22:26;70.40;;;46.00;;
74656;SDS011;63185;45.642;13.764;2022-10-16T04:24:52;68.82;;;44.70;;
74656;SDS011;63185;45.642;13.764;2022-10-16T04:27:17;70.90;;;45.67;;
74656;SDS011;63185;45.642;13.764;2022-10-16T04:29:43;75.03;;;46.85;;
74656;SDS011;63185;45.642;13.764;2022-10-16T04:32:09;71.20;;;46.85;;
74656;SDS011;63185;45.642;13.764;2022-10-16T04:34:35;72.75;;;45.65;;
74656;SDS011;63185;45.642;13.764;2022-10-16T04:37:01;74.18;;;45.78;;
74656;SDS011;63185;45.642;13.764;2022-10-16T04:39:26;77.63;;;49.17;;
74656;SDS011;63185;45.642;13.764;2022-10-16T04:41:52;73.80;;;47.65;;
74656;SDS011;63185;45.642;13.764;2022-10-16T04:44:18;75.80;;;47.40;;
74656;SDS011;63185;45.642;13.764;2022-10-16T04:46:43;72.10;;;46.80;;
74656;SDS011;63185;45.642;13.764;2022-10-16T04:49:09;75.40;;;46.83;;
74656;SDS011;63185;45.642;13.764;2022-10-16T04:51:35;76.05;;;47.08;;
74656;SDS011;63185;45.642;13.764;2022-10-16T04:54:01;72.50;;;47.53;;
74656;SDS011;63185;45.642;13.764;2022-10-16T04:56:27;76.43;;;49.05;;
74656;SDS011;63185;45.642;13.764;2022-10-16T04:58:52;72.80;;;47.05;;
74656;SDS011;63185;45.642;13.764;2022-10-16T05:01:18;74.18;;;47.85;;
74656;SDS011;63185;45.642;13.764;2022-10-16T05:03:44;79.25;;;47.92;;
74656;SDS011;63185;45.642;13.764;2022-10-16T05:06:11;75.13;;;47.67;;
74656;SDS011;63185;45.642;13.764;2022-10-16T05:08:36;78.35;;;50.08;;
74656;SDS011;63185;45.642;13.764;2022-10-16T05:11:02;74.55;;;48.15;;
74656;SDS011;63185;45.642;13.764;2022-10-16T05:13:28;74.22;;;47.40;;
74656;SDS011;63185;45.642;13.764;2022-10-16T05:15:53;79.38;;;48.20;;
74656;SDS011;63185;45.642;13.764;2022-10-16T05:18:19;81.95;;;50.30;;
74656;SDS011;63185;45.642;13.764;2022-10-16T05:20:45;79.60;;;50.15;;
74656;SDS011;63185;45.642;13.764;2022-10-16T05:23:11;80.18;;;50.03;;
74656;SDS011;63185;45.642;13.764;2022-10-16T05:25:36;82.07;;;50.47;;
74656;SDS011;63185;45.642;13.764;2022-10-16T05:28:02;80.22;;;49.80;;
74656;SDS011;63185;45.642;13.764;2022-10-16T05:30:28;80.05;;;49.92;;
74656;SDS011;63185;45.642;13.764;2022-10-16T05:32:54;83.20;;;51.00;;
74656;SDS011;63185;45.642;13.764;2022-10-16T05:35:20;86.20;;;51.25;;
74656;SDS011;63185;45.642;13.764;2022-10-16T05:37:46;86.38;;;51.75;;
74656;SDS011;63185;45.642;13.764;2022-10-16T05:40:13;83.47;;;50.70;;
74656;SDS011;63185;45.642;13.764;2022-10-16T05:42:39;87.53;;;50.95;;
74656;SDS011;63185;45.642;13.764;2022-10-16T05:45:06;88.38;;;51.83;;
74656;SDS011;63185;45.642;13.764;2022-10-16T05:47:33;89.30;;;53.33;;
74656;SDS011;63185;45.642;13.764;2022-10-16T05:49:58;83.90;;;50.88;;
74656;SDS011;63185;45.642;13.764;2022-10-16T05:52:24;86.03;;;52.70;;
74656;SDS011;63185;45.642;13.764;2022-10-16T05:54:51;89.55;;;53.13;;
74656;SDS011;63185;45.642;13.764;2022-10-16T05:57:17;84.00;;;51.17;;
74656;SDS011;63185;45.642;13.764;2022-10-16T05:59:42;82.03;;;50.28;;
74656;SDS011;63185;45.642;13.764;2022-10-16T06:02:14;85.18;;;51.13;;
74656;SDS011;63185;45.642;13.764;2022-10-16T06:04:40;84.20;;;51.45;;
74656;SDS011;63185;45.642;13.764;2022-10-16T06:07:06;80.85;;;50.67;;
74656;SDS011;63185;45.642;13.764;2022-10-16T06:09:31;83.70;;;50.20;;
74656;SDS011;63185;45.642;13.764;2022-10-16T06:11:57;83.63;;;50.33;;
74656;SDS011;63185;45.642;13.764;2022-10-16T06:14:23;78.90;;;49.28;;
74656;SDS011;63185;45.642;13.764;2022-10-16T06:16:49;74.53;;;49.10;;
74656;SDS011;63185;45.642;13.764;2022-10-16T06:19:14;71.95;;;46.40;;
74656;SDS011;63185;45.642;13.764;2022-10-16T06:21:41;74.03;;;48.38;;
74656;SDS011;63185;45.642;13.764;2022-10-16T06:24:07;77.72;;;47.67;;
74656;SDS011;63185;45.642;13.764;2022-10-16T06:26:33;72.68;;;47.90;;
74656;SDS011;63185;45.642;13.764;2022-10-16T06:28:59;74.18;;;46.78;;
74656;SDS011;63185;45.642;13.764;2022-10-16T06:31:25;75.57;;;46.53;;
74656;SDS011;63185;45.642;13.764;2022-10-16T06:33:54;70.88;;;46.80;;
74656;SDS011;63185;45.642;13.764;2022-10-16T06:36:20;72.00;;;46.85;;
74656;SDS011;63185;45.642;13.764;2022-10-16T06:38:46;72.80;;;46.78;;
74656;SDS011;63185;45.642;13.764;2022-10-16T06:41:13;70.03;;;45.05;;
74656;SDS011;63185;45.642;13.764;2022-10-16T06:43:40;74.68;;;46.30;;
74656;SDS011;63185;45.642;13.764;2022-10-16T06:46:06;66.78;;;45.42;;
74656;SDS011;63185;45.642;13.764;2022-10-16T06:48:34;73.00;;;47.07;;
74656;SDS011;63185;45.642;13.764;2022-10-16T06:53:29;71.32;;;47.10;;
74656;SDS011;63185;45.642;13.764;2022-10-16T06:55:57;70.60;;;46.13;;
74656;SDS011;63185;45.642;13.764;2022-10-16T06:58:23;68.95;;;45.25;;
74656;SDS011;63185;45.642;13.764;2022-10-16T07:00:54;75.93;;;47.67;;
74656;SDS011;63185;45.642;13.764;2022-10-16T07:03:21;70.68;;;45.85;;
74656;SDS011;63185;45.642;13.764;2022-10-16T07:05:47;66.40;;;46.03;;
74656;SDS011;63185;45.642;13.764;2022-10-16T07:08:13;73.93;;;47.17;;
74656;SDS011;63185;45.642;13.764;2022-10-16T07:10:39;76.30;;;47.85;;
74656;SDS011;63185;45.642;13.764;2022-10-16T07:13:04;75.43;;;48.28;;
74656;SDS011;63185;45.642;13.764;2022-10-16T07:15:32;75.05;;;49.30;;
74656;SDS011;63185;45.642;13.764;2022-10-16T07:17:58;75.47;;;49.47;;
74656;SDS011;63185;45.642;13.764;2022-10-16T07:20:24;71.32;;;47.30;;
74656;SDS011;63185;45.642;13.764;2022-10-16T07:22:49;69.78;;;46.13;;
74656;SDS011;63185;45.642;13.764;2022-10-16T07:25:16;72.10;;;46.78;;
74656;SDS011;63185;45.642;13.764;2022-10-16T07:27:42;72.25;;;48.65;;
74656;SDS011;63185;45.642;13.764;2022-10-16T07:30:07;72.65;;;47.90;;
74656;SDS011;63185;45.642;13.764;2022-10-16T07:32:33;65.95;;;45.67;;
74656;SDS011;63185;45.642;13.764;2022-10-16T07:34:59;75.00;;;47.92;;
74656;SDS011;63185;45.642;13.764;2022-10-16T07:37:25;68.93;;;46.72;;
74656;SDS011;63185;45.642;13.764;2022-10-16T07:39:50;73.70;;;47.17;;
74656;SDS011;63185;45.642;13.764;2022-10-16T07:42:16;68.65;;;46.72;;
74656;SDS011;63185;45.642;13.764;2022-10-16T07:44:42;68.32;;;47.10;;
74656;SDS011;63185;45.642;13.764;2022-10-16T07:47:08;71.65;;;48.00;;
74656;SDS011;63185;45.642;13.764;2022-10-16T07:49:34;70.07;;;46.53;;
74656;SDS011;63185;45.642;13.764;2022-10-16T07:52:00;73.45;;;47.95;;
74656;SDS011;63185;45.642;13.764;2022-10-16T07:54:25;72.95;;;48.70;;
74656;SDS011;63185;45.642;13.764;2022-10-16T07:56:51;70.10;;;47.95;;
74656;SDS011;63185;45.642;13.764;2022-10-16T07:59:17;72.68;;;48.92;;
74656;SDS011;63185;45.642;13.764;2022-10-16T08:01:43;75.82;;;50.22;;
74656;SDS011;63185;45.642;13.764;2022-10-16T08:04:09;77.30;;;48.47;;
74656;SDS011;63185;45.642;13.764;2022-10-16T08:06:36;71.93;;;47.95;;
74656;SDS011;63185;45.642;13.764;2022-10-16T08:09:03;71.32;;;46.97;;
74656;SDS011;63185;45.642;13.764;2022-10-16T08:11:29;72.47;;;48.03;;
74656;SDS011;63185;45.642;13.764;2022-10-16T08:13:54;72.00;;;47.35;;
74656;SDS011;63185;45.642;13.764;2022-10-16T08:16:20;70.20;;;47.65;;
74656;SDS011;63185;45.642;13.764;2022-10-16T08:18:46;73.40;;;49.28;;
74656;SDS011;63185;45.642;13.764;2022-10-16T08:21:13;73.07;;;47.95;;
74656;SDS011;63185;45.642;13.764;2022-10-16T08:23:40;73.15;;;48.67;;
74656;SDS011;63185;45.642;13.764;2022-10-16T08:26:06;73.82;;;48.17;;
74656;SDS011;63185;45.642;13.764;2022-10-16T08:28:33;70.88;;;47.63;;
74656;SDS011;63185;45.642;13.764;2022-10-16T08:33:33;66.93;;;46.28;;
74656;SDS011;63185;45.642;13.764;2022-10-16T08:36:00;66.03;;;45.78;;
74656;SDS011;63185;45.642;13.764;2022-10-16T08:38:26;64.10;;;45.00;;
74656;SDS011;63185;45.642;13.764;2022-10-16T08:40:52;63.00;;;43.97;;
74656;SDS011;63185;45.642;13.764;2022-10-16T08:43:33;66.22;;;46.90;;
74656;SDS011;63185;45.642;13.764;2022-10-16T08:49:21;61.35;;;42.90;;
74656;SDS011;63185;45.642;13.764;2022-10-16T08:51:49;69.95;;;44.30;;
74656;SDS011;63185;45.642;13.764;2022-10-16T08:54:31;66.32;;;46.88;;
74656;SDS011;63185;45.642;13.764;2022-10-16T08:57:19;69.32;;;45.63;;
74656;SDS011;63185;45.642;13.764;2022-10-16T08:59:46;67.88;;;46.22;;
74656;SDS011;63185;45.642;13.764;2022-10-16T09:02:18;72.03;;;48.80;;
74656;SDS011;63185;45.642;13.764;2022-10-16T09:04:56;70.80;;;48.80;;
74656;SDS011;63185;45.642;13.764;2022-10-16T09:10:37;70.30;;;48.40;;
74656;SDS011;63185;45.642;13.764;2022-10-16T09:21:35;74.63;;;49.25;;
74656;SDS011;63185;45.642;13.764;2022-10-16T09:24:11;70.40;;;47.25;;
74656;SDS011;63185;45.642;13.764;2022-10-16T09:26:43;73.38;;;48.85;;
74656;SDS011;63185;45.642;13.764;2022-10-16T09:29:13;69.28;;;47.10;;
74656;SDS011;63185;45.642;13.764;2022-10-16T09:31:40;70.43;;;49.38;;
74656;SDS011;63185;45.642;13.764;2022-10-16T09:34:08;71.93;;;48.38;;
74656;SDS011;63185;45.642;13.764;2022-10-16T09:36:55;76.63;;;48.20;;
74656;SDS011;63185;45.642;13.764;2022-10-16T09:39:23;79.05;;;48.95;;
74656;SDS011;63185;45.642;13.764;2022-10-16T09:41:50;77.15;;;48.55;;
74656;SDS011;63185;45.642;13.764;2022-10-16T09:44:18;77.55;;;51.92;;
74656;SDS011;63185;45.642;13.764;2022-10-16T09:46:44;80.55;;;51.83;;
74656;SDS011;63185;45.642;13.764;2022-10-16T09:49:23;82.40;;;52.00;;
74656;SDS011;63185;45.642;13.764;2022-10-16T09:51:50;75.72;;;49.85;;
74656;SDS011;63185;45.642;13.764;2022-10-16T09:54:27;82.43;;;52.85;;
74656;SDS011;63185;45.642;13.764;2022-10-16T09:57:03;76.60;;;50.13;;
74656;SDS011;63185;45.642;13.764;2022-10-16T09:59:33;80.15;;;52.15;;
74656;SDS011;63185;45.642;13.764;2022-10-16T10:02:03;79.57;;;51.25;;
74656;SDS011;63185;45.642;13.764;2022-10-16T10:04:40;78.40;;;49.88;;
74656;SDS011;63185;45.642;13.764;2022-10-16T10:07:21;80.32;;;50.53;;
74656;SDS011;63185;45.642;13.764;2022-10-16T10:09:53;77.17;;;50.03;;
74656;SDS011;63185;45.642;13.764;2022-10-16T10:12:28;72.30;;;48.83;;
74656;SDS011;63185;45.642;13.764;2022-10-16T10:15:07;75.03;;;50.53;;
74656;SDS011;63185;45.642;13.764;2022-10-16T10:17:45;79.60;;;51.72;;
74656;SDS011;63185;45.642;13.764;2022-10-16T10:22:52;82.50;;;51.88;;
74656;SDS011;63185;45.642;13.764;2022-10-16T10:27:52;77.38;;;49.75;;
74656;SDS011;63185;45.642;13.764;2022-10-16T10:30:45;82.20;;;51.72;;
74656;SDS011;63185;45.642;13.764;2022-10-16T10:38:56;85.43;;;51.40;;
74656;SDS011;63185;45.642;13.764;2022-10-16T10:47:17;78.35;;;50.95;;
74656;SDS011;63185;45.642;13.764;2022-10-16T10:49:59;77.50;;;50.85;;
74656;SDS011;63185;45.642;13.764;2022-10-16T10:52:49;75.82;;;49.22;;
74656;SDS011;63185;45.642;13.764;2022-10-16T11:02:03;84.55;;;52.75;;
74656;SDS011;63185;45.642;13.764;2022-10-16T11:07:33;82.70;;;52.40;;
74656;SDS011;63185;45.642;13.764;2022-10-16T11:10:19;88.05;;;52.65;;
74656;SDS011;63185;45.642;13.764;2022-10-16T11:12:49;85.20;;;53.08;;
74656;SDS011;63185;45.642;13.764;2022-10-16T11:15:32;82.15;;;53.10;;
74656;SDS011;63185;45.642;13.764;2022-10-16T11:18:06;86.15;;;52.20;;
74656;SDS011;63185;45.642;13.764;2022-10-16T11:20:34;81.88;;;50.53;;
74656;SDS011;63185;45.642;13.764;2022-10-16T11:23:18;86.70;;;53.40;;
74656;SDS011;63185;45.642;13.764;2022-10-16T11:25:49;88.70;;;54.05;;
74656;SDS011;63185;45.642;13.764;2022-10-16T11:33:49;86.03;;;51.45;;
74656;SDS011;63185;45.642;13.764;2022-10-16T11:36:43;84.75;;;54.25;;
74656;SDS011;63185;45.642;13.764;2022-10-16T11:41:44;81.83;;;53.50;;
74656;SDS011;63185;45.642;13.764;2022-10-16T11:49:34;82.07;;;51.22;;
74656;SDS011;63185;45.642;13.764;2022-10-16T11:57:51;81.90;;;52.80;;
74656;SDS011;63185;45.642;13.764;2022-10-16T12:08:14;81.13;;;52.60;;
74656;SDS011;63185;45.642;13.764;2022-10-16T12:10:42;78.07;;;52.50;;
74656;SDS011;63185;45.642;13.764;2022-10-16T12:18:45;82.85;;;53.33;;
74656;SDS011;63185;45.642;13.764;2022-10-16T12:21:15;82.70;;;52.08;;
74656;SDS011;63185;45.642;13.764;2022-10-16T12:26:33;74.82;;;48.00;;
74656;SDS011;63185;45.642;13.764;2022-10-16T12:31:57;71.75;;;49.35;;
74656;SDS011;63185;45.642;13.764;2022-10-16T12:34:26;71.55;;;49.17;;
74656;SDS011;63185;45.642;13.764;2022-10-16T12:36:53;83.32;;;53.33;;
74656;SDS011;63185;45.642;13.764;2022-10-16T12:39:21;80.82;;;52.33;;
74656;SDS011;63185;45.642;13.764;2022-10-16T12:41:59;74.25;;;49.58;;
74656;SDS011;63185;45.642;13.764;2022-10-16T12:44:26;79.95;;;50.40;;
74656;SDS011;63185;45.642;13.764;2022-10-16T12:46:58;79.30;;;52.35;;
74656;SDS011;63185;45.642;13.764;2022-10-16T12:51:52;80.32;;;52.70;;
74656;SDS011;63185;45.642;13.764;2022-10-16T12:54:20;80.65;;;52.42;;
74656;SDS011;63185;45.642;13.764;2022-10-16T12:59:38;83.30;;;53.45;;
74656;SDS011;63185;45.642;13.764;2022-10-16T13:07:50;88.70;;;56.40;;
74656;SDS011;63185;45.642;13.764;2022-10-16T13:10:25;84.88;;;55.42;;
74656;SDS011;63185;45.642;13.764;2022-10-16T13:15:25;86.82;;;53.50;;
74656;SDS011;63185;45.642;13.764;2022-10-16T13:18:33;87.47;;;54.78;;
74656;SDS011;63185;45.642;13.764;2022-10-16T13:29:32;84.95;;;53.42;;
74656;SDS011;63185;45.642;13.764;2022-10-16T13:31:59;85.65;;;53.95;;
74656;SDS011;63185;45.642;13.764;2022-10-16T13:34:31;84.72;;;54.70;;
74656;SDS011;63185;45.642;13.764;2022-10-16T13:36:57;81.47;;;53.15;;
74656;SDS011;63185;45.642;13.764;2022-10-16T13:39:30;88.57;;;53.55;;
74656;SDS011;63185;45.642;13.764;2022-10-16T13:42:03;79.32;;;53.40;;
74656;SDS011;63185;45.642;13.764;2022-10-16T13:44:31;81.07;;;53.00;;
74656;SDS011;63185;45.642;13.764;2022-10-16T13:47:05;80.70;;;52.53;;
74656;SDS011;63185;45.642;13.764;2022-10-16T13:49:39;83.85;;;53.78;;
74656;SDS011;63185;45.642;13.764;2022-10-16T13:52:05;83.40;;;52.58;;
74656;SDS011;63185;45.642;13.764;2022-10-16T13:54:30;79.47;;;51.92;;
74656;SDS011;63185;45.642;13.764;2022-10-16T13:57:04;79.07;;;51.20;;
74656;SDS011;63185;45.642;13.764;2022-10-16T13:59:34;85.18;;;52.03;;
74656;SDS011;63185;45.642;13.764;2022-10-16T14:02:05;78.40;;;50.08;;
74656;SDS011;63185;45.642;13.764;2022-10-16T14:04:45;77.20;;;50.70;;
74656;SDS011;63185;45.642;13.764;2022-10-16T14:07:15;81.03;;;51.30;;
74656;SDS011;63185;45.642;13.764;2022-10-16T14:09:51;76.72;;;51.08;;
74656;SDS011;63185;45.642;13.764;2022-10-16T14:12:18;79.10;;;51.90;;
74656;SDS011;63185;45.642;13.764;2022-10-16T14:14:46;78.25;;;52.33;;
74656;SDS011;63185;45.642;13.764;2022-10-16T14:17:27;74.93;;;50.05;;
74656;SDS011;63185;45.642;13.764;2022-10-16T14:19:56;75.38;;;49.97;;
74656;SDS011;63185;45.642;13.764;2022-10-16T14:24:57;73.47;;;49.33;;
74656;SDS011;63185;45.642;13.764;2022-10-16T14:27:33;74.28;;;49.33;;
74656;SDS011;63185;45.642;13.764;2022-10-16T14:30:22;72.00;;;48.13;;
74656;SDS011;63185;45.642;13.764;2022-10-16T14:35:27;69.75;;;48.25;;
74656;SDS011;63185;45.642;13.764;2022-10-16T14:37:54;70.70;;;48.65;;
74656;SDS011;63185;45.642;13.764;2022-10-16T14:40:23;80.53;;;50.53;;
74656;SDS011;63185;45.642;13.764;2022-10-16T14:42:57;76.82;;;51.17;;
74656;SDS011;63185;45.642;13.764;2022-10-16T14:45:25;74.95;;;49.28;;
74656;SDS011;63185;45.642;13.764;2022-10-16T14:47:57;78.63;;;51.45;;
74656;SDS011;63185;45.642;13.764;2022-10-16T14:50:29;73.40;;;50.30;;
74656;SDS011;63185;45.642;13.764;2022-10-16T14:52:55;74.20;;;48.58;;
74656;SDS011;63185;45.642;13.764;2022-10-16T14:55:21;64.18;;;46.20;;
74656;SDS011;63185;45.642;13.764;2022-10-16T14:57:49;68.88;;;46.53;;
74656;SDS011;63185;45.642;13.764;2022-10-16T15:00:16;67.20;;;47.55;;
74656;SDS011;63185;45.642;13.764;2022-10-16T15:02:45;65.50;;;45.53;;
74656;SDS011;63185;45.642;13.764;2022-10-16T15:07:43;68.97;;;46.70;;
74656;SDS011;63185;45.642;13.764;2022-10-16T15:10:09;70.65;;;47.45;;
74656;SDS011;63185;45.642;13.764;2022-10-16T15:12:38;63.70;;;45.92;;
74656;SDS011;63185;45.642;13.764;2022-10-16T15:17:47;65.85;;;46.13;;
74656;SDS011;63185;45.642;13.764;2022-10-16T15:20:14;70.00;;;48.25;;
74656;SDS011;63185;45.642;13.764;2022-10-16T15:22:39;67.72;;;46.15;;
74656;SDS011;63185;45.642;13.764;2022-10-16T15:25:27;65.20;;;45.35;;
74656;SDS011;63185;45.642;13.764;2022-10-16T15:27:57;72.20;;;48.50;;
74656;SDS011;63185;45.642;13.764;2022-10-16T15:30:23;79.82;;;51.22;;
74656;SDS011;63185;45.642;13.764;2022-10-16T15:32:49;74.88;;;48.08;;
74656;SDS011;63185;45.642;13.764;2022-10-16T15:35:15;70.63;;;47.83;;
74656;SDS011;63185;45.642;13.764;2022-10-16T15:37:41;73.20;;;49.28;;
74656;SDS011;63185;45.642;13.764;2022-10-16T15:40:08;73.80;;;47.83;;
74656;SDS011;63185;45.642;13.764;2022-10-16T15:42:34;74.10;;;50.63;;
74656;SDS011;63185;45.642;13.764;2022-10-16T15:45:00;71.82;;;52.00;;
74656;SDS011;63185;45.642;13.764;2022-10-16T15:47:26;77.55;;;52.10;;
74656;SDS011;63185;45.642;13.764;2022-10-16T15:49:51;80.28;;;53.60;;
74656;SDS011;63185;45.642;13.764;2022-10-16T15:52:17;82.60;;;55.55;;
74656;SDS011;63185;45.642;13.764;2022-10-16T15:54:43;79.20;;;53.80;;
74656;SDS011;63185;45.642;13.764;2022-10-16T15:57:09;82.45;;;54.33;;
74656;SDS011;63185;45.642;13.764;2022-10-16T15:59:34;87.15;;;56.05;;
74656;SDS011;63185;45.642;13.764;2022-10-16T16:02:00;85.10;;;56.85;;
74656;SDS011;63185;45.642;13.764;2022-10-16T16:04:26;87.43;;;56.00;;
74656;SDS011;63185;45.642;13.764;2022-10-16T16:06:54;91.55;;;58.80;;
74656;SDS011;63185;45.642;13.764;2022-10-16T16:09:19;85.20;;;55.92;;
74656;SDS011;63185;45.642;13.764;2022-10-16T16:11:45;85.60;;;55.47;;
74656;SDS011;63185;45.642;13.764;2022-10-16T16:14:12;79.88;;;55.45;;
74656;SDS011;63185;45.642;13.764;2022-10-16T16:16:38;94.32;;;57.88;;
74656;SDS011;63185;45.642;13.764;2022-10-16T16:19:04;92.25;;;58.85;;
74656;SDS011;63185;45.642;13.764;2022-10-16T16:21:32;90.03;;;57.92;;
74656;SDS011;63185;45.642;13.764;2022-10-16T16:23:58;94.18;;;60.55;;
74656;SDS011;63185;45.642;13.764;2022-10-16T16:26:25;97.85;;;57.88;;
74656;SDS011;63185;45.642;13.764;2022-10-16T16:28:53;95.63;;;59.60;;
74656;SDS011;63185;45.642;13.764;2022-10-16T16:31:20;93.05;;;59.22;;
74656;SDS011;63185;45.642;13.764;2022-10-16T16:33:50;93.15;;;58.20;;